Time;durP1;ratioP1;P1;durP2;ratioP2;P2;SDS_P1;SDS_P2;PMS_P1;PMS_P2;Temp;Humidity;BMP_temperature;BMP_pressure;BME280_temperature;BME280_humidity;BME280_pressure;Samples;Min_cycle;Max_cycle;Signal;HPM_P1;HPM_P2
2022/10/18 00:01:43;;;;;;;24.77;12.63;;;;;;;;;;5116924;27;20502;-86
2022/10/18 00:04:10;;;;;;;25.77;12.32;;;;;;;;;;5118239;27;20051;-86
2022/10/18 00:06:36;;;;;;;24.27;12.18;;;;;;;;;;5108673;27;20052;-90
2022/10/18 00:09:08;;;;;;;28.80;12.40;;;;;;;;;;5104237;27;20063;-89
2022/10/18 00:11:34;;;;;;;23.75;11.90;;;;;;;;;;5101403;28;20052;-88
2022/10/18 00:14:01;;;;;;;28.85;12.88;;;;;;;;;;5105365;27;20048;-87
2022/10/18 00:16:27;;;;;;;26.15;12.13;;;;;;;;;;5108200;28;20063;-87
2022/10/18 00:18:53;;;;;;;35.75;12.57;;;;;;;;;;5108866;28;20513;-86
2022/10/18 00:21:21;;;;;;;24.77;11.60;;;;;;;;;;5108873;28;20044;-86
2022/10/18 00:23:48;;;;;;;20.50;10.43;;;;;;;;;;5109890;27;20055;-87
2022/10/18 00:26:15;;;;;;;20.25;10.05;;;;;;;;;;5110404;27;20063;-85
2022/10/18 00:28:42;;;;;;;17.15;9.57;;;;;;;;;;5107437;28;20052;-86
2022/10/18 00:31:13;;;;;;;21.75;10.15;;;;;;;;;;5092325;28;20059;-86
2022/10/18 00:33:40;;;;;;;18.98;9.07;;;;;;;;;;5102041;28;20056;-87
2022/10/18 00:36:07;;;;;;;20.30;9.30;;;;;;;;;;5108518;28;20048;-86
2022/10/18 00:38:33;;;;;;;30.17;9.73;;;;;;;;;;5090054;28;20052;-86
2022/10/18 00:40:59;;;;;;;45.80;9.75;;;;;;;;;;5094332;28;20048;-87
2022/10/18 00:43:26;;;;;;;20.38;8.57;;;;;;;;;;5109072;28;20059;-86
2022/10/18 00:45:52;;;;;;;19.63;9.18;;;;;;;;;;5109727;28;20525;-88
2022/10/18 00:48:19;;;;;;;53.05;10.13;;;;;;;;;;5109536;27;20104;-86
2022/10/18 00:50:46;;;;;;;29.95;9.57;;;;;;;;;;5117904;27;20060;-85
2022/10/18 00:53:19;;;;;;;45.45;9.00;;;;;;;;;;5109794;28;20064;-86
2022/10/18 00:55:45;;;;;;;19.27;8.68;;;;;;;;;;5108161;27;20056;-86
2022/10/18 00:58:14;;;;;;;13.57;7.72;;;;;;;;;;5104417;28;20106;-86
2022/10/18 01:00:40;;;;;;;13.77;8.18;;;;;;;;;;5092826;27;20130;-85
2022/10/18 01:03:07;;;;;;;16.60;8.23;;;;;;;;;;5105538;27;20056;-85
2022/10/18 01:05:40;;;;;;;54.60;9.70;;;;;;;;;;5107857;28;20095;-86
2022/10/18 01:08:15;;;;;;;41.88;9.43;;;;;;;;;;5111873;27;20048;-86
2022/10/18 01:10:50;;;;;;;17.95;8.45;;;;;;;;;;5100113;27;20044;-86
2022/10/18 01:13:28;;;;;;;47.88;9.70;;;;;;;;;;5092791;28;20044;-86
2022/10/18 01:16:24;;;;;;;67.45;10.18;;;;;;;;;;5104925;28;20388;-86
2022/10/18 01:19:00;;;;;;;105.90;12.40;;;;;;;;;;5079971;28;20056;-86
2022/10/18 01:21:36;;;;;;;61.60;10.05;;;;;;;;;;5111230;27;20052;-86
2022/10/18 01:24:21;;;;;;;89.45;10.98;;;;;;;;;;5111668;27;20047;-86
2022/10/18 01:27:00;;;;;;;49.58;11.10;;;;;;;;;;5113928;27;20056;-85
2022/10/18 01:29:34;;;;;;;62.78;10.85;;;;;;;;;;5114220;27;20060;-86
2022/10/18 01:32:06;;;;;;;98.03;13.35;;;;;;;;;;5107077;27;20056;-88
2022/10/18 01:34:33;;;;;;;97.57;13.20;;;;;;;;;;5113133;27;20850;-86
2022/10/18 01:37:02;;;;;;;28.83;10.63;;;;;;;;;;5107575;28;20051;-85
2022/10/18 01:39:30;;;;;;;36.72;12.50;;;;;;;;;;5112327;28;20052;-86
2022/10/18 01:41:58;;;;;;;30.25;12.73;;;;;;;;;;5094021;27;20564;-86
2022/10/18 01:44:25;;;;;;;31.30;11.85;;;;;;;;;;5101160;28;20044;-87
2022/10/18 01:46:53;;;;;;;56.72;13.57;;;;;;;;;;5113855;27;20062;-86
2022/10/18 01:49:19;;;;;;;21.45;10.93;;;;;;;;;;5134089;27;20109;-88
2022/10/18 01:51:46;;;;;;;30.23;11.43;;;;;;;;;;5115077;27;20055;-86
2022/10/18 01:54:14;;;;;;;23.52;11.07;;;;;;;;;;5112087;27;20509;-86
2022/10/18 01:56:43;;;;;;;34.92;11.90;;;;;;;;;;5100049;27;20090;-86
2022/10/18 01:59:28;;;;;;;26.65;11.40;;;;;;;;;;5104995;27;20946;-86
2022/10/18 02:02:00;;;;;;;19.88;11.05;;;;;;;;;;5097290;27;21288;-87
2022/10/18 02:04:39;;;;;;;23.83;11.35;;;;;;;;;;5108789;27;20052;-86
2022/10/18 02:07:10;;;;;;;23.48;10.50;;;;;;;;;;5109756;27;20048;-86
2022/10/18 02:09:41;;;;;;;27.23;11.23;;;;;;;;;;5109023;27;20427;-88
2022/10/18 02:12:09;;;;;;;27.33;12.25;;;;;;;;;;5125773;27;20147;-86
2022/10/18 02:14:35;;;;;;;57.15;13.25;;;;;;;;;;5110667;27;20051;-86
2022/10/18 02:17:04;;;;;;;32.25;11.25;;;;;;;;;;5100160;27;20054;-86
2022/10/18 02:19:33;;;;;;;28.98;11.23;;;;;;;;;;5110942;28;20101;-85
2022/10/18 02:22:00;;;;;;;43.08;12.50;;;;;;;;;;5119196;27;20048;-86
2022/10/18 02:24:53;;;;;;;69.82;14.02;;;;;;;;;;5112320;27;20051;-86
2022/10/18 02:27:19;;;;;;;38.63;13.15;;;;;;;;;;5102109;28;20056;-87
2022/10/18 02:29:46;;;;;;;58.90;14.40;;;;;;;;;;5116269;27;20061;-87
2022/10/18 02:32:18;;;;;;;34.67;13.15;;;;;;;;;;5090090;28;20099;-87
2022/10/18 02:35:08;;;;;;;49.60;13.85;;;;;;;;;;5107271;27;20052;-87
2022/10/18 02:37:36;;;;;;;33.85;13.50;;;;;;;;;;5077469;28;20056;-86
2022/10/18 02:40:04;;;;;;;46.13;13.48;;;;;;;;;;5114657;27;20128;-86
2022/10/18 02:42:34;;;;;;;41.95;14.45;;;;;;;;;;5115367;27;20526;-87
2022/10/18 02:45:01;;;;;;;85.00;15.88;;;;;;;;;;5108992;28;20060;-86
2022/10/18 02:47:27;;;;;;;36.70;13.13;;;;;;;;;;5110921;28;20048;-86
2022/10/18 02:49:54;;;;;;;27.85;11.75;;;;;;;;;;5106162;28;20526;-85
2022/10/18 02:52:20;;;;;;;30.52;12.55;;;;;;;;;;5094947;28;20051;-86
2022/10/18 02:54:46;;;;;;;34.40;11.65;;;;;;;;;;5109813;27;20151;-88
2022/10/18 02:57:12;;;;;;;20.63;10.73;;;;;;;;;;5107012;28;20032;-89
2022/10/18 02:59:39;;;;;;;22.67;11.25;;;;;;;;;;5100649;27;20540;-86
2022/10/18 03:02:05;;;;;;;28.13;11.10;;;;;;;;;;5108807;27;20544;-87
2022/10/18 03:04:31;;;;;;;19.75;10.38;;;;;;;;;;5112196;27;20048;-86
2022/10/18 03:06:58;;;;;;;31.83;11.65;;;;;;;;;;5095603;28;20053;-86
2022/10/18 03:09:24;;;;;;;48.83;11.98;;;;;;;;;;5103893;27;20056;-86
2022/10/18 03:11:50;;;;;;;86.63;13.60;;;;;;;;;;5101206;28;20067;-86
2022/10/18 03:14:16;;;;;;;78.55;13.43;;;;;;;;;;5129810;27;20055;-86
2022/10/18 03:16:43;;;;;;;41.97;12.73;;;;;;;;;;5117686;27;20615;-86
2022/10/18 03:19:09;;;;;;;70.63;14.68;;;;;;;;;;5100604;28;20086;-86
2022/10/18 03:21:35;;;;;;;33.95;11.88;;;;;;;;;;5107490;28;20060;-85
2022/10/18 03:24:02;;;;;;;28.35;11.68;;;;;;;;;;5106598;27;20060;-89
2022/10/18 03:26:28;;;;;;;32.53;11.38;;;;;;;;;;5112059;27;20056;-87
2022/10/18 03:28:54;;;;;;;48.83;11.20;;;;;;;;;;5107972;27;20056;-87
2022/10/18 03:31:21;;;;;;;20.20;10.18;;;;;;;;;;5094573;27;20110;-86
2022/10/18 03:33:47;;;;;;;26.58;10.13;;;;;;;;;;5130423;27;20442;-86
2022/10/18 03:36:14;;;;;;;43.20;9.77;;;;;;;;;;5116404;27;20048;-86
2022/10/18 03:38:41;;;;;;;24.70;9.65;;;;;;;;;;5104323;28;20498;-88
2022/10/18 03:41:07;;;;;;;43.83;10.73;;;;;;;;;;5095228;28;20087;-87
2022/10/18 03:43:33;;;;;;;17.63;9.30;;;;;;;;;;5110557;28;20048;-86
2022/10/18 03:46:00;;;;;;;15.30;9.05;;;;;;;;;;5108839;28;20056;-86
2022/10/18 03:48:26;;;;;;;21.85;9.30;;;;;;;;;;5102501;28;20593;-86
2022/10/18 03:50:53;;;;;;;16.80;8.48;;;;;;;;;;5114918;27;20375;-86
2022/10/18 03:53:19;;;;;;;36.88;13.00;;;;;;;;;;5120419;27;20098;-85
2022/10/18 03:55:49;;;;;;;27.23;12.80;;;;;;;;;;5125149;27;20059;-85
2022/10/18 03:58:15;;;;;;;31.13;11.95;;;;;;;;;;5101382;28;20052;-85
2022/10/18 04:00:42;;;;;;;38.00;11.95;;;;;;;;;;5106388;27;20063;-87
2022/10/18 04:03:08;;;;;;;24.98;9.50;;;;;;;;;;5122079;27;20052;-87
2022/10/18 04:05:35;;;;;;;17.23;9.15;;;;;;;;;;5107943;28;20056;-86
2022/10/18 04:08:02;;;;;;;34.33;9.27;;;;;;;;;;5108304;27;20060;-86
2022/10/18 04:10:28;;;;;;;24.48;9.43;;;;;;;;;;5108434;27;20079;-85
2022/10/18 04:12:54;;;;;;;20.17;9.18;;;;;;;;;;5109506;28;20105;-87
2022/10/18 04:15:20;;;;;;;19.25;9.02;;;;;;;;;;5110478;27;20056;-88
2022/10/18 04:17:47;;;;;;;31.38;8.90;;;;;;;;;;5109536;27;20434;-87
2022/10/18 04:20:13;;;;;;;26.33;8.50;;;;;;;;;;5107651;28;20044;-87
2022/10/18 04:22:39;;;;;;;25.80;8.60;;;;;;;;;;5109452;28;20075;-85
2022/10/18 04:25:06;;;;;;;39.08;9.50;;;;;;;;;;5105966;27;20053;-85
2022/10/18 04:27:32;;;;;;;30.58;9.02;;;;;;;;;;5109045;27;20055;-86
2022/10/18 04:29:59;;;;;;;29.52;9.88;;;;;;;;;;5109187;27;20053;-86
2022/10/18 04:32:27;;;;;;;34.03;9.90;;;;;;;;;;5110200;27;20204;-89
2022/10/18 04:34:54;;;;;;;17.75;8.27;;;;;;;;;;5130305;27;20051;-86
2022/10/18 04:37:20;;;;;;;23.92;8.25;;;;;;;;;;5106437;27;20036;-86
2022/10/18 04:39:47;;;;;;;47.67;9.93;;;;;;;;;;5111735;27;20055;-85
2022/10/18 04:42:18;;;;;;;51.33;10.68;;;;;;;;;;5114844;27;20163;-86
2022/10/18 04:44:45;;;;;;;38.65;9.25;;;;;;;;;;5105323;28;20057;-86
2022/10/18 04:47:11;;;;;;;65.35;10.07;;;;;;;;;;5112495;27;20056;-86
2022/10/18 04:49:37;;;;;;;109.53;12.63;;;;;;;;;;5098174;27;20542;-87
2022/10/18 04:52:04;;;;;;;106.45;12.20;;;;;;;;;;5090240;27;20060;-86
2022/10/18 04:54:30;;;;;;;50.78;10.77;;;;;;;;;;5114840;27;20052;-86
2022/10/18 04:56:56;;;;;;;39.13;9.85;;;;;;;;;;5093529;28;21014;-85
2022/10/18 04:59:28;;;;;;;33.00;10.25;;;;;;;;;;5104107;28;20065;-88
2022/10/18 05:02:06;;;;;;;50.38;10.93;;;;;;;;;;5106324;27;20048;-87
2022/10/18 05:04:33;;;;;;;48.45;10.77;;;;;;;;;;5104057;27;20900;-87
2022/10/18 05:06:59;;;;;;;41.53;9.85;;;;;;;;;;5090479;28;20056;-87
2022/10/18 05:09:25;;;;;;;42.47;10.27;;;;;;;;;;5091222;28;20087;-89
2022/10/18 05:11:52;;;;;;;33.58;8.80;;;;;;;;;;5107861;27;20051;-88
2022/10/18 05:14:24;;;;;;;56.45;10.38;;;;;;;;;;5115367;27;20433;-88
2022/10/18 05:17:07;;;;;;;49.25;9.45;;;;;;;;;;5088819;28;20056;-87
2022/10/18 05:19:36;;;;;;;47.42;9.27;;;;;;;;;;5103391;28;20056;-87
2022/10/18 05:22:02;;;;;;;33.17;9.07;;;;;;;;;;5111201;28;20048;-87
2022/10/18 05:24:29;;;;;;;28.35;8.77;;;;;;;;;;5111418;27;20059;-87
2022/10/18 05:26:55;;;;;;;14.45;8.23;;;;;;;;;;5104756;27;20056;-87
2022/10/18 05:29:22;;;;;;;17.83;7.65;;;;;;;;;;5109881;27;20423;-88
2022/10/18 05:31:50;;;;;;;30.58;8.00;;;;;;;;;;5107459;27;20060;-86
2022/10/18 05:34:16;;;;;;;27.70;8.02;;;;;;;;;;5105058;27;20098;-87
2022/10/18 05:36:43;;;;;;;30.65;7.97;;;;;;;;;;5091113;28;20052;-89
2022/10/18 05:39:09;;;;;;;25.67;9.80;;;;;;;;;;5091195;28;20955;-87
2022/10/18 05:41:35;;;;;;;34.97;10.05;;;;;;;;;;5089115;28;20061;-87
2022/10/18 05:44:02;;;;;;;37.92;10.20;;;;;;;;;;5089303;28;20745;-87
2022/10/18 05:46:31;;;;;;;57.45;11.40;;;;;;;;;;5089856;28;20052;-87
2022/10/18 05:48:58;;;;;;;30.52;10.35;;;;;;;;;;5089407;28;20944;-87
2022/10/18 05:51:24;;;;;;;30.73;9.95;;;;;;;;;;5089083;28;20049;-87
2022/10/18 05:53:51;;;;;;;28.88;10.18;;;;;;;;;;5090941;28;20049;-87
2022/10/18 05:56:18;;;;;;;35.95;9.93;;;;;;;;;;5089232;28;20422;-87
2022/10/18 05:58:48;;;;;;;14.68;8.75;;;;;;;;;;5090452;28;20060;-88
2022/10/18 06:01:15;;;;;;;18.58;8.95;;;;;;;;;;5090711;28;20052;-87
2022/10/18 06:03:41;;;;;;;21.20;8.55;;;;;;;;;;5089062;28;20057;-87
2022/10/18 06:06:09;;;;;;;36.13;9.90;;;;;;;;;;5089162;28;20518;-87
2022/10/18 06:08:35;;;;;;;61.28;11.57;;;;;;;;;;5090158;28;20057;-87
2022/10/18 06:11:08;;;;;;;115.30;13.32;;;;;;;;;;5089565;28;20053;-87
2022/10/18 06:13:38;;;;;;;55.35;10.52;;;;;;;;;;5090015;28;20454;-89
2022/10/18 06:16:05;;;;;;;31.20;10.23;;;;;;;;;;5101629;28;20499;-84
2022/10/18 06:18:31;;;;;;;59.13;12.05;;;;;;;;;;5091840;28;20462;-84
2022/10/18 06:20:58;;;;;;;46.20;11.93;;;;;;;;;;5108194;28;20056;-83
2022/10/18 06:23:25;;;;;;;41.80;11.77;;;;;;;;;;5105135;28;20052;-85
2022/10/18 06:25:54;;;;;;;43.83;11.95;;;;;;;;;;5113030;27;20052;-86
2022/10/18 06:28:20;;;;;;;36.22;12.32;;;;;;;;;;5104660;27;20416;-84
2022/10/18 06:30:46;;;;;;;44.33;10.27;;;;;;;;;;5113317;27;20058;-84
2022/10/18 06:33:13;;;;;;;46.58;9.95;;;;;;;;;;5104738;27;20051;-83
2022/10/18 06:35:39;;;;;;;63.58;11.02;;;;;;;;;;5114384;28;20048;-84
2022/10/18 06:38:05;;;;;;;45.30;10.18;;;;;;;;;;5108856;28;20493;-84
2022/10/18 06:40:36;;;;;;;37.78;11.48;;;;;;;;;;5094165;28;20048;-85
2022/10/18 06:43:05;;;;;;;49.88;9.48;;;;;;;;;;5128558;27;20048;-85
2022/10/18 06:45:46;;;;;;;56.35;8.98;;;;;;;;;;5113630;28;20048;-85
2022/10/18 06:48:12;;;;;;;58.25;8.65;;;;;;;;;;5109292;28;20048;-85
2022/10/18 06:50:39;;;;;;;39.15;8.43;;;;;;;;;;5101107;27;20052;-83
2022/10/18 06:53:07;;;;;;;40.60;8.32;;;;;;;;;;5112598;27;20106;-84
2022/10/18 06:55:35;;;;;;;37.42;6.95;;;;;;;;;;5109326;27;20040;-83
2022/10/18 06:58:04;;;;;;;23.52;6.47;;;;;;;;;;5108919;27;20047;-87
2022/10/18 07:00:30;;;;;;;43.05;7.05;;;;;;;;;;5104887;27;20052;-80
2022/10/18 07:02:57;;;;;;;33.05;7.00;;;;;;;;;;5101506;27;20059;-86
2022/10/18 07:05:44;;;;;;;49.90;7.75;;;;;;;;;;5100525;28;20079;-83
2022/10/18 07:08:10;;;;;;;34.72;6.13;;;;;;;;;;5106815;27;20055;-84
2022/10/18 07:10:41;;;;;;;35.85;6.60;;;;;;;;;;5108458;27;20052;-86
2022/10/18 07:13:08;;;;;;;32.90;6.80;;;;;;;;;;5108492;27;20052;-84
2022/10/18 07:16:05;;;;;;;36.00;6.40;;;;;;;;;;5094625;28;20052;-84
2022/10/18 07:18:39;;;;;;;31.80;6.50;;;;;;;;;;5101529;28;20071;-85
2022/10/18 07:21:06;;;;;;;40.58;7.03;;;;;;;;;;5113426;27;20055;-83
2022/10/18 07:23:37;;;;;;;16.75;6.47;;;;;;;;;;5105868;27;20055;-84
2022/10/18 07:26:24;;;;;;;19.33;6.22;;;;;;;;;;5094117;27;20048;-82
2022/10/18 07:28:56;;;;;;;21.45;6.30;;;;;;;;;;5105088;27;20056;-83
2022/10/18 07:31:25;;;;;;;32.17;7.28;;;;;;;;;;5101097;27;20056;-85
2022/10/18 07:33:52;;;;;;;77.35;8.32;;;;;;;;;;5108307;27;20051;-85
2022/10/18 07:36:20;;;;;;;29.02;6.97;;;;;;;;;;5103448;28;20055;-82
2022/10/18 07:38:46;;;;;;;30.90;6.93;;;;;;;;;;5110213;27;20040;-83
2022/10/18 07:41:13;;;;;;;28.90;8.20;;;;;;;;;;5112286;27;20063;-83
2022/10/18 07:43:47;;;;;;;22.77;7.13;;;;;;;;;;5115933;27;20059;-83
2022/10/18 07:46:13;;;;;;;20.95;7.25;;;;;;;;;;5108179;27;20678;-84
2022/10/18 07:48:40;;;;;;;21.10;6.93;;;;;;;;;;5110460;27;20059;-85
2022/10/18 07:51:06;;;;;;;29.73;8.68;;;;;;;;;;5109325;27;20063;-86
2022/10/18 07:53:35;;;;;;;29.77;9.05;;;;;;;;;;5112131;27;20056;-85
2022/10/18 07:56:14;;;;;;;17.23;8.05;;;;;;;;;;5107308;27;20056;-85
2022/10/18 07:58:44;;;;;;;35.50;9.50;;;;;;;;;;5109780;28;20036;-84
2022/10/18 08:01:11;;;;;;;19.07;8.53;;;;;;;;;;5097633;27;20099;-84
2022/10/18 08:03:37;;;;;;;19.83;8.45;;;;;;;;;;5125958;27;20048;-84
2022/10/18 08:06:07;;;;;;;31.08;8.48;;;;;;;;;;5109030;27;20060;-84
2022/10/18 08:08:34;;;;;;;19.73;7.83;;;;;;;;;;5098369;27;20057;-85
2022/10/18 08:11:02;;;;;;;19.13;8.40;;;;;;;;;;5106677;27;20055;-85
2022/10/18 08:13:29;;;;;;;27.75;7.95;;;;;;;;;;5101998;27;20053;-85
2022/10/18 08:16:06;;;;;;;19.08;7.47;;;;;;;;;;5103384;27;20056;-84
2022/10/18 08:18:32;;;;;;;22.77;7.78;;;;;;;;;;5100952;27;20048;-85
2022/10/18 08:20:59;;;;;;;15.35;7.47;;;;;;;;;;5104354;27;20055;-84
2022/10/18 08:23:26;;;;;;;16.42;7.88;;;;;;;;;;5105644;28;20052;-84
2022/10/18 08:25:52;;;;;;;12.35;6.80;;;;;;;;;;5105515;28;20059;-84
2022/10/18 08:28:18;;;;;;;16.63;6.63;;;;;;;;;;5102972;28;20525;-84
2022/10/18 08:30:44;;;;;;;11.75;7.40;;;;;;;;;;5104935;28;20063;-86
2022/10/18 08:33:11;;;;;;;14.35;6.82;;;;;;;;;;5107174;27;20141;-83
2022/10/18 08:35:37;;;;;;;12.93;8.00;;;;;;;;;;5100271;27;20055;-83
2022/10/18 08:38:03;;;;;;;16.58;8.32;;;;;;;;;;5100292;27;20895;-84
2022/10/18 08:40:32;;;;;;;15.82;8.55;;;;;;;;;;5108498;28;20113;-83
2022/10/18 08:43:01;;;;;;;15.45;7.88;;;;;;;;;;5103567;28;20049;-83
2022/10/18 08:45:27;;;;;;;14.90;7.43;;;;;;;;;;5100462;27;20041;-83
2022/10/18 08:48:15;;;;;;;12.30;6.70;;;;;;;;;;5119661;27;20043;-83
2022/10/18 08:50:42;;;;;;;16.50;8.02;;;;;;;;;;5100752;27;20113;-85
2022/10/18 08:53:17;;;;;;;14.65;7.20;;;;;;;;;;5105784;27;20052;-79
2022/10/18 08:55:52;;;;;;;11.45;6.90;;;;;;;;;;5113006;27;20049;-85
2022/10/18 08:58:20;;;;;;;13.98;7.85;;;;;;;;;;5109489;28;20059;-86
2022/10/18 09:00:57;;;;;;;11.07;6.28;;;;;;;;;;5111909;28;20102;-85
2022/10/18 09:03:42;;;;;;;11.25;7.00;;;;;;;;;;5109432;28;20067;-84
2022/10/18 09:06:17;;;;;;;10.85;6.63;;;;;;;;;;5100125;27;20086;-84
2022/10/18 09:09:04;;;;;;;13.68;6.10;;;;;;;;;;5108237;27;20056;-84
2022/10/18 09:11:48;;;;;;;12.15;5.88;;;;;;;;;;5104083;28;20167;-84
2022/10/18 09:14:26;;;;;;;11.98;4.70;;;;;;;;;;5108464;27;20521;-84
2022/10/18 09:16:55;;;;;;;11.70;4.55;;;;;;;;;;5104502;28;20049;-84
2022/10/18 09:19:28;;;;;;;12.02;4.47;;;;;;;;;;5106261;28;20064;-82
2022/10/18 09:22:04;;;;;;;11.32;3.92;;;;;;;;;;5097615;27;20068;-82
2022/10/18 09:24:38;;;;;;;9.20;4.45;;;;;;;;;;5114138;27;20079;-83
2022/10/18 09:27:10;;;;;;;10.57;3.95;;;;;;;;;;5111899;27;20052;-81
2022/10/18 09:29:45;;;;;;;9.45;3.50;;;;;;;;;;5094377;28;20052;-84
2022/10/18 09:32:30;;;;;;;13.75;3.95;;;;;;;;;;5102520;27;20063;-83
2022/10/18 09:35:23;;;;;;;9.30;4.18;;;;;;;;;;5111979;27;20048;-82
2022/10/18 09:37:52;;;;;;;13.50;3.95;;;;;;;;;;5106278;27;20051;-82
2022/10/18 09:40:24;;;;;;;9.93;3.70;;;;;;;;;;5104423;28;20055;-82
2022/10/18 09:42:53;;;;;;;8.63;4.07;;;;;;;;;;5103923;27;20500;-82
2022/10/18 09:45:19;;;;;;;9.32;3.58;;;;;;;;;;5106551;27;20052;-82
2022/10/18 09:48:04;;;;;;;11.80;3.60;;;;;;;;;;5112104;27;20059;-81
2022/10/18 09:50:37;;;;;;;8.13;3.40;;;;;;;;;;5114577;27;20056;-82
2022/10/18 09:53:11;;;;;;;11.23;3.60;;;;;;;;;;5092260;28;20055;-82
2022/10/18 09:56:05;;;;;;;14.10;3.65;;;;;;;;;;5116135;27;20041;-81
2022/10/18 09:58:43;;;;;;;6.90;2.80;;;;;;;;;;5090553;28;20052;-81
2022/10/18 10:01:10;;;;;;;8.13;2.97;;;;;;;;;;5099891;27;20052;-81
2022/10/18 10:03:36;;;;;;;10.40;2.85;;;;;;;;;;5109290;27;20056;-82
2022/10/18 10:06:13;;;;;;;8.13;2.10;;;;;;;;;;5110580;27;20052;-82
2022/10/18 10:08:40;;;;;;;7.47;2.20;;;;;;;;;;5115768;27;20055;-82
2022/10/18 10:11:25;;;;;;;6.72;2.00;;;;;;;;;;5116547;27;20049;-81
2022/10/18 10:13:55;;;;;;;7.35;1.45;;;;;;;;;;5114314;27;20059;-81
2022/10/18 10:16:22;;;;;;;5.68;1.52;;;;;;;;;;5108679;27;20056;-81
2022/10/18 10:18:53;;;;;;;6.53;1.27;;;;;;;;;;5105818;28;20040;-81
2022/10/18 10:21:19;;;;;;;5.10;1.48;;;;;;;;;;5108943;27;20059;-81
2022/10/18 10:23:53;;;;;;;6.80;1.10;;;;;;;;;;5106045;27;20051;-81
2022/10/18 10:26:24;;;;;;;8.85;1.55;;;;;;;;;;5098950;28;20057;-82
2022/10/18 10:28:50;;;;;;;4.80;1.15;;;;;;;;;;5101371;27;20064;-82
2022/10/18 10:31:23;;;;;;;7.60;1.15;;;;;;;;;;5110241;27;20055;-82
2022/10/18 10:33:58;;;;;;;7.75;1.33;;;;;;;;;;5107224;27;20044;-83
2022/10/18 10:36:25;;;;;;;5.45;1.30;;;;;;;;;;5101093;27;20057;-82
2022/10/18 10:39:10;;;;;;;5.63;0.90;;;;;;;;;;5114246;27;20083;-82
2022/10/18 10:41:39;;;;;;;9.40;1.30;;;;;;;;;;5121853;27;20055;-81
2022/10/18 10:44:14;;;;;;;7.70;1.10;;;;;;;;;;5108757;27;20139;-83
2022/10/18 10:46:40;;;;;;;7.15;1.42;;;;;;;;;;5115988;27;20052;-82
2022/10/18 10:49:27;;;;;;;8.65;1.25;;;;;;;;;;5113140;28;20048;-82
2022/10/18 10:52:06;;;;;;;8.45;1.70;;;;;;;;;;5112298;27;20056;-81
2022/10/18 10:54:43;;;;;;;7.93;1.52;;;;;;;;;;5112251;27;20052;-81
2022/10/18 10:57:19;;;;;;;9.90;0.95;;;;;;;;;;5110724;27;20086;-81
2022/10/18 10:59:46;;;;;;;6.38;1.17;;;;;;;;;;5111432;27;20056;-81
2022/10/18 11:02:19;;;;;;;7.05;1.23;;;;;;;;;;5108131;27;20052;-81
2022/10/18 11:04:50;;;;;;;7.43;1.33;;;;;;;;;;5091743;28;20898;-81
2022/10/18 11:07:16;;;;;;;;;;;;;;;;;;5110149;28;20044;-81
2022/10/18 11:10:01;;;;;;;6.47;1.00;;;;;;;;;;5104045;28;43973;-81
2022/10/18 11:12:32;;;;;;;6.00;1.25;;;;;;;;;;5109739;28;20056;-81
2022/10/18 11:15:01;;;;;;;12.82;1.70;;;;;;;;;;5111824;28;20048;-81
2022/10/18 11:17:47;;;;;;;11.73;1.45;;;;;;;;;;5112140;27;20056;-81
2022/10/18 11:20:28;;;;;;;7.63;1.25;;;;;;;;;;5099567;27;20052;-81
2022/10/18 11:22:59;;;;;;;7.20;1.35;;;;;;;;;;5098944;27;20059;-81
2022/10/18 11:25:32;;;;;;;7.25;1.67;;;;;;;;;;5111413;27;20055;-81
2022/10/18 11:27:59;;;;;;;3.63;0.88;;;;;;;;;;5109473;27;20063;-81
2022/10/18 11:30:25;;;;;;;4.72;0.98;;;;;;;;;;5090479;27;20053;-81
2022/10/18 11:33:22;;;;;;;8.07;1.33;;;;;;;;;;5092073;28;20556;-81
2022/10/18 11:36:17;;;;;;;7.13;1.10;;;;;;;;;;5083336;28;20063;-82
2022/10/18 11:38:43;;;;;;;14.45;1.70;;;;;;;;;;5089691;28;20061;-82
2022/10/18 11:41:12;;;;;;;5.35;1.60;;;;;;;;;;5102110;27;20052;-82
2022/10/18 11:43:39;;;;;;;9.43;1.63;;;;;;;;;;5093088;27;20056;-82
2022/10/18 11:46:40;;;;;;;8.10;1.25;;;;;;;;;;5102270;27;20063;-82
2022/10/18 11:49:12;;;;;;;8.80;1.23;;;;;;;;;;5111407;27;20063;-82
2022/10/18 11:51:48;;;;;;;8.27;1.60;;;;;;;;;;5108897;28;20118;-82
2022/10/18 11:54:33;;;;;;;6.07;1.00;;;;;;;;;;5110750;27;20052;-82
2022/10/18 11:57:00;;;;;;;7.07;1.20;;;;;;;;;;5122700;27;20039;-82
2022/10/18 11:59:31;;;;;;;5.70;1.33;;;;;;;;;;5121880;27;20044;-82
2022/10/18 12:02:16;;;;;;;5.22;1.10;;;;;;;;;;5097053;28;20063;-82
2022/10/18 12:04:46;;;;;;;7.70;1.08;;;;;;;;;;5106618;27;20085;-84
2022/10/18 12:07:37;;;;;;;6.03;1.10;;;;;;;;;;5107635;27;20106;-84
2022/10/18 12:10:06;;;;;;;6.45;0.93;;;;;;;;;;5109568;28;20494;-82
2022/10/18 12:12:37;;;;;;;5.28;1.10;;;;;;;;;;5113616;27;20048;-82
2022/10/18 12:15:16;;;;;;;8.82;1.17;;;;;;;;;;5130608;27;20047;-82
2022/10/18 12:17:43;;;;;;;7.65;1.27;;;;;;;;;;5095177;27;20055;-82
2022/10/18 12:20:22;;;;;;;6.60;1.00;;;;;;;;;;5116003;27;20060;-82
2022/10/18 12:22:53;;;;;;;8.63;1.15;;;;;;;;;;5110365;28;20047;-82
2022/10/18 12:25:19;;;;;;;6.03;1.10;;;;;;;;;;5111677;27;20411;-81
2022/10/18 12:27:51;;;;;;;5.93;0.80;;;;;;;;;;5110813;28;20051;-82
2022/10/18 12:30:30;;;;;;;5.32;1.02;;;;;;;;;;5110316;27;20062;-82
2022/10/18 12:33:03;;;;;;;6.97;0.93;;;;;;;;;;5111309;27;20048;-81
2022/10/18 12:36:15;;;;;;;5.85;1.25;;;;;;;;;;5100005;28;20048;-82
2022/10/18 12:38:43;;;;;;;4.80;0.90;;;;;;;;;;5111755;28;20056;-81
2022/10/18 12:41:20;;;;;;;5.20;1.08;;;;;;;;;;5103959;27;20053;-81
2022/10/18 12:43:55;;;;;;;5.75;1.15;;;;;;;;;;5092611;28;20537;-81
2022/10/18 12:46:21;;;;;;;4.07;1.08;;;;;;;;;;5099428;27;20052;-81
2022/10/18 12:48:58;;;;;;;5.18;0.90;;;;;;;;;;5104811;27;22162;-81
2022/10/18 12:51:24;;;;;;;6.07;0.93;;;;;;;;;;5117750;27;20841;-80
2022/10/18 12:53:55;;;;;;;4.88;1.10;;;;;;;;;;5099750;27;20516;-81
2022/10/18 12:56:27;;;;;;;5.85;0.90;;;;;;;;;;5109048;27;20482;-81
2022/10/18 12:59:12;;;;;;;4.28;0.70;;;;;;;;;;5101141;27;20057;-82
2022/10/18 13:01:54;;;;;;;2.47;0.70;;;;;;;;;;5101520;27;20052;-82
2022/10/18 13:04:26;;;;;;;6.18;1.00;;;;;;;;;;5117304;27;20056;-82
2022/10/18 13:06:56;;;;;;;4.35;1.02;;;;;;;;;;5105066;27;20049;-81
2022/10/18 13:09:36;;;;;;;5.40;1.00;;;;;;;;;;5094063;28;20052;-81
2022/10/18 13:12:08;;;;;;;5.63;0.82;;;;;;;;;;5101130;28;20052;-82
2022/10/18 13:14:41;;;;;;;6.80;0.98;;;;;;;;;;5111243;28;20194;-82
2022/10/18 13:17:38;;;;;;;6.93;0.90;;;;;;;;;;5106924;27;20052;-82
2022/10/18 13:20:13;;;;;;;5.45;0.85;;;;;;;;;;5101551;27;20052;-81
2022/10/18 13:22:54;;;;;;;6.60;0.88;;;;;;;;;;5109952;27;20131;-82
2022/10/18 13:25:33;;;;;;;4.95;0.90;;;;;;;;;;5125845;27;20048;-82
2022/10/18 13:28:02;;;;;;;4.82;1.15;;;;;;;;;;5111071;27;20060;-82
2022/10/18 13:30:39;;;;;;;5.35;1.27;;;;;;;;;;5099061;27;20056;-80
2022/10/18 13:33:27;;;;;;;5.75;1.00;;;;;;;;;;5107512;28;20924;-82
2022/10/18 13:35:58;;;;;;;5.63;1.20;;;;;;;;;;5103350;27;20109;-82
2022/10/18 13:38:46;;;;;;;6.95;0.77;;;;;;;;;;5111244;27;20142;-82
2022/10/18 13:41:12;;;;;;;6.40;0.95;;;;;;;;;;5105067;28;20510;-81
2022/10/18 13:43:55;;;;;;;4.55;0.95;;;;;;;;;;5104665;28;20087;-81
2022/10/18 13:46:42;;;;;;;3.78;0.80;;;;;;;;;;5110510;28;20056;-81
2022/10/18 13:49:23;;;;;;;5.00;0.90;;;;;;;;;;5059757;28;20059;-82
2022/10/18 13:51:56;;;;;;;5.65;1.00;;;;;;;;;;5108910;27;20583;-80
2022/10/18 13:54:28;;;;;;;5.43;0.85;;;;;;;;;;5112659;27;20048;-81
2022/10/18 13:57:06;;;;;;;7.13;1.05;;;;;;;;;;5096834;28;20068;-81
2022/10/18 13:59:36;;;;;;;6.07;1.20;;;;;;;;;;5111382;27;20502;-82
2022/10/18 14:02:11;;;;;;;7.70;1.45;;;;;;;;;;5104090;28;20144;-82
2022/10/18 14:04:50;;;;;;;5.05;1.00;;;;;;;;;;5123952;27;20051;-81
2022/10/18 14:07:17;;;;;;;5.00;0.93;;;;;;;;;;5104411;27;20060;-82
2022/10/18 14:10:04;;;;;;;7.90;1.00;;;;;;;;;;5103966;27;20892;-82
2022/10/18 14:12:48;;;;;;;4.32;0.82;;;;;;;;;;5099920;27;20055;-82
2022/10/18 14:15:38;;;;;;;4.70;0.82;;;;;;;;;;5095758;28;20359;-82
2022/10/18 14:18:13;;;;;;;3.00;0.70;;;;;;;;;;5104019;27;20059;-81
2022/10/18 14:20:46;;;;;;;6.68;1.00;;;;;;;;;;5109485;27;20056;-81
2022/10/18 14:23:43;;;;;;;3.15;0.93;;;;;;;;;;5110466;27;20494;-82
2022/10/18 14:26:14;;;;;;;8.45;1.17;;;;;;;;;;5110537;27;20106;-81
2022/10/18 14:28:41;;;;;;;5.13;1.00;;;;;;;;;;5105158;27;20515;-82
2022/10/18 14:31:25;;;;;;;6.60;1.02;;;;;;;;;;5102056;27;20055;-82
2022/10/18 14:33:57;;;;;;;9.45;1.80;;;;;;;;;;5100781;27;20058;-82
2022/10/18 14:36:26;;;;;;;;;;;;;;;;;;5116591;27;20517;-81
2022/10/18 14:39:00;;;;;;;6.22;1.15;;;;;;;;;;5098119;27;46889;-82
2022/10/18 14:41:28;;;;;;;3.75;0.90;;;;;;;;;;5107268;27;20142;-81
2022/10/18 14:44:12;;;;;;;9.60;2.33;;;;;;;;;;5112281;27;20071;-82
2022/10/18 14:46:44;;;;;;;6.82;1.00;;;;;;;;;;5116479;27;20098;-82
2022/10/18 14:49:13;;;;;;;4.47;0.80;;;;;;;;;;5101078;27;20206;-82
2022/10/18 14:51:45;;;;;;;5.97;1.20;;;;;;;;;;5108343;27;20056;-82
2022/10/18 14:54:17;;;;;;;8.90;1.23;;;;;;;;;;5113631;27;20079;-82
2022/10/18 14:56:50;;;;;;;7.05;0.95;;;;;;;;;;5110813;27;20133;-82